Terminal Aerodrome Forecast
Issued by NWS

Home | Current Version | Previous Version | Text Only | Print | Product List | Glossary On
Versions: 1 2 3 4 5 6 7 8 9 10 11 12 13 14 15 16
000
FTAK31 PAFA 251132
TAFAMC
TAF
PAMC 251132Z 2512/2612 12004KT P6SM SCT018 OVC090
     FM252200 VRB04KT P6SM SCT025 BKN050 OVC090
     FM260300 VRB04KT 6SM -SHRASN BR SCT010 BKN025 OVC050=

USA.gov is the U.S. government's official web portal to all federal, state and local government web resources and services.